createdAt,value
2018-11-12T00:00:34.364Z,21.67
2018-11-12T00:01:09.584Z,21.66
2018-11-12T00:01:45.027Z,21.66
2018-11-12T00:02:20.295Z,21.65
2018-11-12T00:03:00.029Z,21.62
2018-11-12T00:03:35.501Z,21.67
2018-11-12T00:04:10.716Z,21.64
2018-11-12T00:04:46.043Z,21.60
2018-11-12T00:05:21.407Z,21.47
2018-11-12T00:05:56.705Z,21.61
2018-11-12T00:06:32.044Z,21.62
2018-11-12T00:07:07.634Z,21.59
2018-11-12T00:07:43.261Z,21.55
2018-11-12T00:08:18.481Z,21.57
2018-11-12T00:08:53.750Z,21.54
2018-11-12T00:09:29.163Z,21.52
2018-11-12T00:10:04.325Z,21.57
2018-11-12T00:10:39.610Z,21.52
2018-11-12T00:11:15.108Z,21.52
2018-11-12T00:11:50.579Z,21.56
2018-11-12T00:12:25.893Z,21.58
2018-11-12T00:13:01.429Z,21.53
2018-11-12T00:13:36.927Z,21.50
2018-11-12T00:14:12.292Z,21.52
2018-11-12T00:14:48.110Z,21.47
2018-11-12T00:15:23.420Z,21.54
2018-11-12T00:15:59.064Z,21.58
2018-11-12T00:16:34.243Z,21.56
2018-11-12T00:17:09.399Z,21.57
2018-11-12T00:17:44.850Z,21.52
2018-11-12T00:18:20.415Z,21.59
2018-11-12T00:18:55.691Z,21.64
2018-11-12T00:19:31.031Z,21.64
2018-11-12T00:20:06.515Z,21.61
2018-11-12T00:20:42.129Z,21.68
2018-11-12T00:21:17.605Z,21.72
2018-11-12T00:21:53.124Z,21.68
2018-11-12T00:22:28.428Z,21.60
2018-11-12T00:23:03.697Z,21.58
2018-11-12T00:23:38.996Z,21.57
2018-11-12T00:24:14.346Z,21.52
2018-11-12T00:24:49.632Z,21.47
2018-11-12T00:25:24.904Z,21.52
2018-11-12T00:26:00.133Z,21.53
2018-11-12T00:26:35.380Z,21.56
2018-11-12T00:27:10.538Z,21.65
2018-11-12T00:27:45.969Z,21.65
2018-11-12T00:28:21.396Z,21.65
2018-11-12T00:28:56.816Z,21.63
2018-11-12T00:29:32.296Z,21.62
2018-11-12T00:30:10.896Z,21.61
2018-11-12T00:30:46.230Z,21.65
2018-11-12T00:31:21.638Z,21.63
2018-11-12T00:31:57.109Z,21.64
2018-11-12T00:32:32.296Z,21.62
2018-11-12T00:33:07.685Z,21.61
2018-11-12T00:33:43.100Z,21.64
2018-11-12T00:34:18.426Z,21.65
2018-11-12T00:34:54.029Z,21.67
2018-11-12T00:35:29.329Z,21.68
2018-11-12T00:36:04.376Z,21.68
2018-11-12T00:36:39.932Z,21.72
2018-11-12T00:37:15.522Z,21.75
2018-11-12T00:37:50.769Z,21.74
2018-11-12T00:38:25.999Z,21.76
2018-11-12T00:39:01.081Z,21.69
2018-11-12T00:39:36.620Z,21.59
2018-11-12T00:40:15.101Z,21.60
2018-11-12T00:40:50.448Z,21.50
2018-11-12T00:41:25.711Z,21.49
2018-11-12T00:42:01.246Z,21.48
2018-11-12T00:42:36.494Z,21.53
2018-11-12T00:43:11.851Z,21.53
2018-11-12T00:43:47.327Z,21.60
2018-11-12T00:44:22.615Z,21.65
2018-11-12T00:44:57.963Z,21.58
2018-11-12T00:45:33.325Z,21.60
2018-11-12T00:46:08.683Z,21.58
2018-11-12T00:46:44.175Z,21.62
2018-11-12T00:47:19.312Z,21.72
2018-11-12T00:47:55.163Z,21.70
2018-11-12T00:48:30.564Z,21.69
2018-11-12T00:49:06.537Z,21.66
2018-11-12T00:49:42.020Z,21.65
2018-11-12T00:50:17.505Z,21.60
2018-11-12T00:50:52.819Z,21.58
2018-11-12T00:51:28.323Z,21.59
2018-11-12T00:52:04.217Z,21.54
2018-11-12T00:52:39.698Z,21.55
2018-11-12T00:53:15.079Z,21.61
2018-11-12T00:53:50.264Z,21.57
2018-11-12T00:54:25.574Z,21.58
2018-11-12T00:55:00.868Z,21.61
2018-11-12T00:55:36.250Z,21.58
2018-11-12T00:56:11.702Z,21.59
2018-11-12T00:56:47.108Z,21.61
2018-11-12T00:57:22.472Z,21.61
2018-11-12T00:57:58.138Z,21.66
2018-11-12T00:58:33.790Z,21.73
2018-11-12T00:59:09.124Z,21.73
2018-11-12T00:59:44.577Z,21.72
2018-11-12T01:00:21.241Z,21.72
2018-11-12T01:00:56.809Z,21.71
2018-11-12T01:01:32.254Z,21.64
2018-11-12T01:02:07.579Z,21.59
2018-11-12T01:02:45.245Z,21.59
2018-11-12T01:03:20.632Z,21.65
2018-11-12T01:03:55.998Z,21.62
2018-11-12T01:04:31.291Z,21.66
2018-11-12T01:05:07.016Z,21.68
2018-11-12T01:05:42.134Z,21.73
2018-11-12T01:06:17.440Z,21.69
2018-11-12T01:06:52.792Z,21.71
2018-11-12T01:07:28.206Z,21.71
2018-11-12T01:08:03.433Z,21.71
2018-11-12T01:08:38.865Z,21.60
2018-11-12T01:09:14.507Z,21.52
2018-11-12T01:09:49.837Z,21.50
2018-11-12T01:10:25.329Z,21.56
2018-11-12T01:11:00.818Z,21.53
2018-11-12T01:11:36.074Z,21.55
2018-11-12T01:12:11.481Z,21.56
2018-11-12T01:12:47.021Z,21.58
2018-11-12T01:13:22.480Z,21.64
2018-11-12T01:13:57.780Z,21.63
2018-11-12T01:14:33.071Z,21.67
2018-11-12T01:15:12.361Z,21.70
2018-11-12T01:15:47.677Z,21.70
2018-11-12T01:16:22.968Z,21.65
2018-11-12T01:16:58.801Z,21.65
2018-11-12T01:17:34.478Z,21.67
2018-11-12T01:18:09.897Z,21.62
2018-11-12T01:18:45.165Z,21.60
2018-11-12T01:19:20.517Z,21.57
2018-11-12T01:19:56.177Z,21.54
2018-11-12T01:20:31.592Z,21.47
2018-11-12T01:21:07.582Z,21.41
2018-11-12T01:21:42.830Z,21.45
2018-11-12T01:22:18.381Z,21.45
2018-11-12T01:22:53.943Z,21.41
2018-11-12T01:23:29.346Z,21.42
2018-11-12T01:24:04.745Z,21.43
2018-11-12T01:24:40.119Z,21.47
2018-11-12T01:25:16.124Z,21.49
2018-11-12T01:25:51.505Z,21.44
2018-11-12T01:26:26.924Z,21.40
2018-11-12T01:27:02.290Z,21.49
2018-11-12T01:27:37.797Z,21.45
2018-11-12T01:28:13.180Z,21.45
2018-11-12T01:28:48.550Z,21.43
2018-11-12T01:29:24.125Z,21.39
2018-11-12T01:29:59.667Z,21.40
2018-11-12T01:30:35.158Z,21.46
2018-11-12T01:31:10.425Z,21.51
2018-11-12T01:31:45.870Z,21.55
2018-11-12T01:32:21.269Z,21.58
2018-11-12T01:32:56.799Z,21.59
2018-11-12T01:33:32.422Z,21.59
2018-11-12T01:34:08.134Z,21.60
2018-11-12T01:34:43.486Z,21.56
2018-11-12T01:35:19.907Z,21.49
2018-11-12T01:35:55.625Z,21.48
2018-11-12T01:36:31.149Z,21.49
2018-11-12T01:37:06.996Z,21.52
2018-11-12T01:37:42.338Z,21.56
2018-11-12T01:38:17.670Z,21.62
2018-11-12T01:38:52.752Z,21.61
2018-11-12T01:39:28.053Z,21.53
2018-11-12T01:40:03.440Z,21.40
2018-11-12T01:40:38.730Z,21.34
2018-11-12T01:41:13.946Z,21.32
2018-11-12T01:41:49.695Z,21.34
2018-11-12T01:42:24.762Z,21.44
2018-11-12T01:43:00.014Z,21.51
2018-11-12T01:43:35.376Z,21.49
2018-11-12T01:44:10.720Z,21.42
2018-11-12T01:44:46.112Z,21.43
2018-11-12T01:45:21.623Z,21.39
2018-11-12T01:45:56.974Z,21.42
2018-11-12T01:46:32.371Z,21.40
2018-11-12T01:47:07.857Z,21.42
2018-11-12T01:47:44.104Z,21.43
2018-11-12T01:48:19.509Z,21.46
2018-11-12T01:48:55.311Z,21.43
2018-11-12T01:49:30.772Z,21.37
2018-11-12T01:50:07.812Z,21.35
2018-11-12T01:50:43.084Z,21.34
2018-11-12T01:51:18.669Z,21.33
2018-11-12T01:51:54.113Z,21.30
2018-11-12T01:52:29.475Z,21.32
2018-11-12T01:53:05.131Z,21.30
2018-11-12T01:53:40.633Z,21.30
2018-11-12T01:54:15.937Z,21.27
2018-11-12T01:54:51.603Z,21.26
2018-11-12T01:56:00.834Z,21.21
2018-11-12T01:56:36.363Z,21.21
2018-11-12T01:57:11.730Z,21.20
2018-11-12T01:57:47.450Z,21.25
2018-11-12T01:58:22.816Z,21.20
2018-11-12T01:58:58.129Z,21.20
2018-11-12T01:59:33.680Z,21.20
2018-11-12T02:00:14.998Z,21.23
2018-11-12T02:00:50.264Z,21.17
2018-11-12T02:01:25.732Z,21.17
2018-11-12T02:02:01.020Z,21.17
2018-11-12T02:02:36.392Z,21.16
2018-11-12T02:03:11.765Z,21.19
2018-11-12T02:03:47.012Z,21.20
2018-11-12T02:04:22.263Z,21.20
2018-11-12T02:04:57.743Z,21.16
2018-11-12T02:05:33.065Z,21.19
2018-11-12T02:06:08.313Z,21.17
2018-11-12T02:06:43.785Z,21.17
2018-11-12T02:07:19.140Z,21.15
2018-11-12T02:07:54.512Z,21.17
2018-11-12T02:08:30.036Z,21.13
2018-11-12T02:09:07.360Z,21.18
2018-11-12T02:09:42.794Z,21.17
2018-11-12T02:10:19.276Z,21.16
2018-11-12T02:10:54.810Z,21.14
2018-11-12T02:11:30.101Z,21.17
2018-11-12T02:12:05.704Z,21.16
2018-11-12T02:12:41.587Z,21.20
2018-11-12T02:13:17.099Z,21.25
2018-11-12T02:13:52.556Z,21.21
2018-11-12T02:14:28.066Z,21.17
2018-11-12T02:15:03.560Z,21.18
2018-11-12T02:15:38.906Z,21.17
2018-11-12T02:16:14.462Z,21.17
2018-11-12T02:16:49.958Z,21.16
2018-11-12T02:17:25.126Z,21.11
2018-11-12T02:18:00.495Z,21.13
2018-11-12T02:18:35.676Z,21.16
2018-11-12T02:19:11.229Z,21.20
2018-11-12T02:19:46.658Z,21.19
2018-11-12T02:20:22.883Z,21.16
2018-11-12T02:20:58.327Z,21.14
2018-11-12T02:21:33.672Z,21.15
2018-11-12T02:22:09.086Z,21.21
2018-11-12T02:22:45.693Z,21.13
2018-11-12T02:23:21.165Z,21.13
2018-11-12T02:23:56.407Z,21.11
2018-11-12T02:24:31.719Z,21.08
2018-11-12T02:25:07.793Z,21.08
2018-11-12T02:25:43.157Z,21.08
2018-11-12T02:26:18.460Z,21.05
2018-11-12T02:26:54.600Z,21.08
2018-11-12T02:27:30.068Z,21.11
2018-11-12T02:28:06.485Z,21.08
2018-11-12T02:28:41.836Z,21.07
2018-11-12T02:29:17.085Z,21.00
2018-11-12T02:29:52.446Z,20.98
2018-11-12T02:30:32.856Z,20.95
2018-11-12T02:31:08.352Z,20.96
2018-11-12T02:31:43.557Z,20.98
2018-11-12T02:32:18.890Z,20.98
2018-11-12T02:32:54.253Z,20.98
2018-11-12T02:33:29.580Z,21.02
2018-11-12T02:34:04.815Z,21.02
2018-11-12T02:34:40.255Z,20.95
2018-11-12T02:35:15.641Z,20.88
2018-11-12T02:35:50.945Z,20.90
2018-11-12T02:36:26.306Z,20.90
2018-11-12T02:37:01.694Z,20.94
2018-11-12T02:37:38.183Z,20.96
2018-11-12T02:38:13.510Z,20.98
2018-11-12T02:38:55.822Z,20.96
2018-11-12T02:39:31.279Z,20.92
2018-11-12T02:40:07.214Z,20.88
2018-11-12T02:40:42.543Z,20.92
2018-11-12T02:41:17.959Z,20.91
2018-11-12T02:41:53.337Z,20.90
2018-11-12T02:42:28.529Z,20.85
2018-11-12T02:43:03.841Z,20.90
2018-11-12T02:43:39.283Z,20.91
2018-11-12T02:44:14.912Z,20.85
2018-11-12T02:44:50.136Z,20.92
2018-11-12T02:45:25.572Z,20.90
2018-11-12T02:46:00.838Z,20.84
2018-11-12T02:46:36.822Z,20.84
2018-11-12T02:47:12.050Z,20.85
2018-11-12T02:47:47.312Z,20.85
2018-11-12T02:48:22.698Z,20.83
2018-11-12T02:48:58.069Z,20.83
2018-11-12T02:49:33.398Z,20.85
2018-11-12T02:50:09.962Z,20.83
2018-11-12T02:50:45.311Z,20.87
2018-11-12T02:51:20.691Z,20.85
2018-11-12T02:51:55.824Z,20.88
2018-11-12T02:52:31.123Z,20.91
2018-11-12T02:53:06.375Z,20.94
2018-11-12T02:53:41.632Z,20.93
2018-11-12T02:54:16.924Z,20.96
2018-11-12T02:54:52.247Z,20.98
2018-11-12T02:55:27.701Z,20.98
2018-11-12T02:56:03.124Z,21.01
2018-11-12T02:56:38.556Z,20.96
2018-11-12T02:57:13.967Z,21.03
2018-11-12T02:57:49.380Z,21.01
2018-11-12T02:58:24.710Z,21.00
2018-11-12T02:59:00.029Z,20.97
2018-11-12T02:59:35.531Z,20.97
2018-11-12T03:00:14.388Z,20.94
2018-11-12T03:00:49.779Z,20.97
2018-11-12T03:01:25.370Z,20.97
2018-11-12T03:02:00.710Z,20.96
2018-11-12T03:02:36.126Z,20.87
2018-11-12T03:03:11.468Z,20.94
2018-11-12T03:03:47.007Z,20.95
2018-11-12T03:04:22.431Z,20.94
2018-11-12T03:04:57.897Z,20.98
2018-11-12T03:05:33.104Z,21.01
2018-11-12T03:06:08.503Z,20.98
2018-11-12T03:06:43.920Z,21.02
2018-11-12T03:07:19.481Z,20.99
2018-11-12T03:07:54.980Z,21.00
2018-11-12T03:08:30.238Z,21.00
2018-11-12T03:09:09.102Z,21.01
2018-11-12T03:09:44.334Z,21.02
2018-11-12T03:10:23.285Z,20.98
2018-11-12T03:10:58.659Z,21.05
2018-11-12T03:11:34.004Z,21.02
2018-11-12T03:12:09.378Z,21.08
2018-11-12T03:12:44.822Z,21.12
2018-11-12T03:13:19.931Z,21.08
2018-11-12T03:13:55.419Z,21.06
2018-11-12T03:14:30.922Z,21.08
2018-11-12T03:15:07.624Z,21.11
2018-11-12T03:15:42.811Z,21.06
2018-11-12T03:16:18.206Z,21.02
2018-11-12T03:16:53.410Z,21.02
2018-11-12T03:17:28.893Z,20.99
2018-11-12T03:18:04.025Z,20.97
2018-11-12T03:18:39.581Z,20.98
2018-11-12T03:19:14.931Z,20.97
2018-11-12T03:19:50.337Z,20.93
2018-11-12T03:20:25.749Z,20.85
2018-11-12T03:21:00.960Z,20.88
2018-11-12T03:21:36.232Z,20.94
2018-11-12T03:22:11.719Z,20.93
2018-11-12T03:22:47.123Z,20.94
2018-11-12T03:23:23.272Z,20.97
2018-11-12T03:23:58.601Z,20.94
2018-11-12T03:24:34.015Z,20.92
2018-11-12T03:25:12.021Z,20.83
2018-11-12T03:25:47.530Z,20.86
2018-11-12T03:26:22.945Z,20.84
2018-11-12T03:26:58.262Z,20.80
2018-11-12T03:27:33.721Z,20.77
2018-11-12T03:28:08.874Z,20.76
2018-11-12T03:28:44.254Z,20.79
2018-11-12T03:29:19.586Z,20.81
2018-11-12T03:29:54.756Z,20.77
2018-11-12T03:30:30.369Z,20.79
2018-11-12T03:31:05.947Z,20.74
2018-11-12T03:31:41.248Z,20.76
2018-11-12T03:32:16.461Z,20.73
2018-11-12T03:32:52.664Z,20.73
2018-11-12T03:33:27.976Z,20.77
2018-11-12T03:34:03.393Z,20.78
2018-11-12T03:34:38.745Z,20.82
2018-11-12T03:35:14.793Z,20.83
2018-11-12T03:35:50.308Z,20.82
2018-11-12T03:36:25.663Z,20.82
2018-11-12T03:37:01.000Z,20.82
2018-11-12T03:37:36.406Z,20.84
2018-11-12T03:38:11.857Z,20.83
2018-11-12T03:38:47.088Z,20.85
2018-11-12T03:39:22.354Z,20.85
2018-11-12T03:39:57.633Z,20.85
2018-11-12T03:40:32.659Z,20.89
2018-11-12T03:41:08.062Z,20.90
2018-11-12T03:41:43.330Z,20.84
2018-11-12T03:42:18.580Z,20.85
2018-11-12T03:42:54.403Z,20.90
2018-11-12T03:43:29.701Z,20.91
2018-11-12T03:44:04.875Z,20.92
2018-11-12T03:44:40.078Z,20.90
2018-11-12T03:45:18.021Z,20.91
2018-11-12T03:45:53.277Z,20.88
2018-11-12T03:46:28.427Z,20.83
2018-11-12T03:47:03.663Z,20.85
2018-11-12T03:47:39.668Z,20.82
2018-11-12T03:48:14.953Z,20.82
2018-11-12T03:48:50.321Z,20.85
2018-11-12T03:49:25.636Z,20.87
2018-11-12T03:50:00.941Z,20.99
2018-11-12T03:50:36.464Z,21.03
2018-11-12T03:51:11.655Z,20.92
2018-11-12T03:51:47.091Z,20.86
2018-11-12T03:52:22.661Z,20.87
2018-11-12T03:52:58.126Z,20.84
2018-11-12T03:53:33.621Z,20.78
2018-11-12T03:54:08.748Z,20.77
2018-11-12T03:54:43.913Z,20.83
2018-11-12T03:55:20.955Z,20.84
2018-11-12T03:55:56.298Z,20.90
2018-11-12T03:56:31.572Z,20.86
2018-11-12T03:57:07.547Z,20.88
2018-11-12T03:57:42.979Z,20.86
2018-11-12T03:58:18.205Z,20.90
2018-11-12T03:58:53.508Z,20.87
2018-11-12T03:59:28.971Z,20.91
2018-11-12T04:00:04.747Z,20.90
2018-11-12T04:00:40.385Z,20.86
2018-11-12T04:01:15.798Z,20.83
2018-11-12T04:01:51.153Z,20.86
2018-11-12T04:02:26.625Z,20.86
2018-11-12T04:03:02.096Z,20.86
2018-11-12T04:03:37.485Z,20.86
2018-11-12T04:04:14.036Z,20.83
2018-11-12T04:04:49.364Z,20.87
2018-11-12T04:05:24.679Z,20.92
2018-11-12T04:06:00.049Z,20.95
2018-11-12T04:06:35.341Z,20.91
2018-11-12T04:07:10.880Z,20.91
2018-11-12T04:07:45.950Z,20.85
2018-11-12T04:08:21.374Z,20.82
2018-11-12T04:08:56.538Z,20.78
2018-11-12T04:09:31.833Z,20.73
2018-11-12T04:10:10.073Z,20.70
2018-11-12T04:10:45.429Z,20.71
2018-11-12T04:11:21.125Z,20.72
2018-11-12T04:11:56.642Z,20.71
2018-11-12T04:12:32.143Z,20.72
2018-11-12T04:13:07.588Z,20.68
2018-11-12T04:13:42.735Z,20.67
2018-11-12T04:14:17.970Z,20.60
2018-11-12T04:14:53.321Z,20.64
2018-11-12T04:15:28.611Z,20.64
2018-11-12T04:16:04.207Z,20.62
2018-11-12T04:16:40.689Z,20.68
2018-11-12T04:17:15.878Z,20.61
2018-11-12T04:17:51.343Z,20.59
2018-11-12T04:18:26.521Z,20.60
2018-11-12T04:19:01.868Z,20.62
2018-11-12T04:19:37.146Z,20.58
2018-11-12T04:20:14.943Z,20.56
2018-11-12T04:20:50.330Z,20.52
2018-11-12T04:21:25.775Z,20.55
2018-11-12T04:22:01.040Z,20.49
2018-11-12T04:22:36.387Z,20.53
2018-11-12T04:23:11.759Z,20.54
2018-11-12T04:23:47.059Z,20.51
2018-11-12T04:24:22.468Z,20.48
2018-11-12T04:24:57.968Z,20.41
2018-11-12T04:25:34.886Z,20.42
2018-11-12T04:26:10.171Z,20.42
2018-11-12T04:26:45.663Z,20.42
2018-11-12T04:27:20.968Z,20.48
2018-11-12T04:27:56.320Z,20.52
2018-11-12T04:28:31.646Z,20.41
2018-11-12T04:29:06.963Z,20.40
2018-11-12T04:29:42.325Z,20.37
2018-11-12T04:30:17.669Z,20.41
2018-11-12T04:30:53.303Z,20.40
2018-11-12T04:31:29.442Z,20.43
2018-11-12T04:32:05.355Z,20.43
2018-11-12T04:32:41.060Z,20.37
2018-11-12T04:33:16.398Z,20.41
2018-11-12T04:33:51.851Z,20.40
2018-11-12T04:34:27.253Z,20.36
2018-11-12T04:35:02.635Z,20.37
2018-11-12T04:35:37.923Z,20.32
2018-11-12T04:36:13.178Z,20.37
2018-11-12T04:36:48.508Z,20.33
2018-11-12T04:37:23.965Z,20.35
2018-11-12T04:37:59.474Z,20.35
2018-11-12T04:38:34.934Z,20.32
2018-11-12T04:39:11.289Z,20.34
2018-11-12T04:39:46.636Z,20.37
2018-11-12T04:40:21.912Z,20.36
2018-11-12T04:40:57.250Z,20.33
2018-11-12T04:41:32.995Z,20.32
2018-11-12T04:42:08.319Z,20.30
2018-11-12T04:42:43.876Z,20.32
2018-11-12T04:43:19.422Z,20.34
2018-11-12T04:43:54.742Z,20.34
2018-11-12T04:44:29.989Z,20.35
2018-11-12T04:45:05.495Z,20.34
2018-11-12T04:45:40.908Z,20.36
2018-11-12T04:46:16.126Z,20.37
2018-11-12T04:46:51.727Z,20.29
2018-11-12T04:47:27.155Z,20.34
2018-11-12T04:48:02.509Z,20.37
2018-11-12T04:48:37.910Z,20.31
2018-11-12T04:49:13.298Z,20.40
2018-11-12T04:49:48.705Z,20.40
2018-11-12T04:50:26.107Z,20.40
2018-11-12T04:51:01.495Z,20.36
2018-11-12T04:51:36.853Z,20.31
2018-11-12T04:52:11.998Z,20.29
2018-11-12T04:52:47.987Z,20.30
2018-11-12T04:53:23.373Z,20.24
2018-11-12T04:53:58.596Z,20.24
2018-11-12T04:54:33.963Z,20.26
2018-11-12T04:55:11.666Z,20.28
2018-11-12T04:55:46.996Z,20.22
2018-11-12T04:56:22.305Z,20.24
2018-11-12T04:56:57.981Z,20.26
2018-11-12T04:57:33.203Z,20.27
2018-11-12T04:58:08.723Z,20.28
2018-11-12T04:58:44.128Z,20.29
2018-11-12T04:59:19.423Z,20.29
2018-11-12T04:59:54.766Z,20.27
2018-11-12T05:00:30.366Z,20.38
2018-11-12T05:01:05.556Z,20.36
2018-11-12T05:01:40.873Z,20.41
2018-11-12T05:02:16.193Z,20.39
2018-11-12T05:02:51.473Z,20.38
2018-11-12T05:03:26.823Z,20.38
2018-11-12T05:04:02.297Z,20.45
2018-11-12T05:04:37.559Z,20.41
2018-11-12T05:05:14.365Z,20.36
2018-11-12T05:05:49.779Z,20.35
2018-11-12T05:06:25.035Z,20.27
2018-11-12T05:07:00.255Z,20.29
2018-11-12T05:07:35.770Z,20.29
2018-11-12T05:08:11.118Z,20.37
2018-11-12T05:08:46.299Z,20.38
2018-11-12T05:09:21.838Z,20.37
2018-11-12T05:09:56.980Z,20.35
2018-11-12T05:10:32.374Z,20.37
2018-11-12T05:11:07.817Z,20.29
2018-11-12T05:11:43.328Z,20.28
2018-11-12T05:12:18.666Z,20.31
2018-11-12T05:12:54.946Z,20.31
2018-11-12T05:13:30.401Z,20.18
2018-11-12T05:14:05.779Z,20.16
2018-11-12T05:14:41.025Z,20.24
2018-11-12T05:15:18.850Z,20.34
2018-11-12T05:15:54.166Z,20.37
2018-11-12T05:16:29.649Z,20.35
2018-11-12T05:17:04.895Z,20.28
2018-11-12T05:17:41.003Z,20.33
2018-11-12T05:18:16.336Z,20.33
2018-11-12T05:18:51.703Z,20.39
2018-11-12T05:19:27.145Z,20.42
2018-11-12T05:20:02.443Z,20.39
2018-11-12T05:20:37.945Z,20.34
2018-11-12T05:21:13.240Z,20.32
2018-11-12T05:21:48.664Z,20.36
2018-11-12T05:22:24.091Z,20.32
2018-11-12T05:22:59.787Z,20.37
2018-11-12T05:23:35.124Z,20.39
2018-11-12T05:24:10.561Z,20.39
2018-11-12T05:24:45.887Z,20.36
2018-11-12T05:25:21.485Z,20.35
2018-11-12T05:25:56.645Z,20.34
2018-11-12T05:26:31.821Z,20.35
2018-11-12T05:27:07.106Z,20.31
2018-11-12T05:27:42.607Z,20.31
2018-11-12T05:28:17.931Z,20.31
2018-11-12T05:28:53.418Z,20.29
2018-11-12T05:29:28.831Z,20.30
2018-11-12T05:30:04.270Z,20.28
2018-11-12T05:30:39.671Z,20.26
2018-11-12T05:31:15.218Z,20.23
2018-11-12T05:31:50.699Z,20.29
2018-11-12T05:32:26.174Z,20.17
2018-11-12T05:33:01.637Z,20.29
2018-11-12T05:33:37.047Z,20.23
2018-11-12T05:34:12.321Z,20.22
2018-11-12T05:34:47.546Z,20.25
2018-11-12T05:35:25.377Z,20.26
2018-11-12T05:36:00.923Z,20.23
2018-11-12T05:36:36.354Z,20.28
2018-11-12T05:37:11.693Z,20.23
2018-11-12T05:37:47.175Z,20.25
2018-11-12T05:38:22.536Z,20.28
2018-11-12T05:38:57.913Z,20.28
2018-11-12T05:39:33.665Z,20.33
2018-11-12T05:40:13.002Z,20.32
2018-11-12T05:40:48.415Z,20.28
2018-11-12T05:41:23.842Z,20.33
2018-11-12T05:41:59.113Z,20.34
2018-11-12T05:42:34.462Z,20.38
2018-11-12T05:43:09.958Z,20.34
2018-11-12T05:43:45.270Z,20.24
2018-11-12T05:44:20.555Z,20.25
2018-11-12T05:44:55.891Z,20.22
2018-11-12T05:45:31.165Z,20.24
2018-11-12T05:46:06.738Z,20.24
2018-11-12T05:46:42.059Z,20.21
2018-11-12T05:47:17.475Z,20.25
2018-11-12T05:47:52.935Z,20.29
2018-11-12T05:48:28.173Z,20.27
2018-11-12T05:49:03.597Z,20.25
2018-11-12T05:49:42.002Z,20.29
2018-11-12T05:50:20.423Z,20.25
2018-11-12T05:50:55.891Z,20.24
2018-11-12T05:51:31.082Z,20.25
2018-11-12T05:52:06.524Z,20.19
2018-11-12T05:52:42.905Z,20.22
2018-11-12T05:53:18.200Z,20.23
2018-11-12T05:53:53.766Z,20.24
2018-11-12T05:54:28.852Z,20.25
2018-11-12T05:55:04.271Z,20.34
2018-11-12T05:55:39.652Z,20.31
2018-11-12T05:56:14.848Z,20.27
2018-11-12T05:56:50.078Z,20.30
2018-11-12T05:57:25.454Z,20.26
2018-11-12T05:58:01.268Z,20.23
2018-11-12T05:58:36.759Z,20.29
2018-11-12T05:59:12.210Z,20.27
2018-11-12T05:59:47.654Z,20.24
2018-11-12T06:00:25.217Z,20.26
2018-11-12T06:01:00.659Z,20.26
2018-11-12T06:01:35.835Z,20.26
2018-11-12T06:02:11.197Z,20.33
2018-11-12T06:02:46.676Z,20.36
2018-11-12T06:03:21.932Z,20.33
2018-11-12T06:03:57.281Z,20.28
2018-11-12T06:04:32.744Z,20.24
2018-11-12T06:05:10.029Z,20.26
2018-11-12T06:05:45.524Z,20.29
2018-11-12T06:06:20.881Z,20.30
2018-11-12T06:06:56.296Z,20.30
2018-11-12T06:07:31.650Z,20.30
2018-11-12T06:08:06.799Z,20.23
2018-11-12T06:08:42.095Z,20.23
2018-11-12T06:09:17.227Z,20.30
2018-11-12T06:09:52.432Z,20.25
2018-11-12T06:10:29.374Z,20.27
2018-11-12T06:11:04.597Z,20.25
2018-11-12T06:11:40.094Z,20.28
2018-11-12T06:12:15.514Z,20.28
2018-11-12T06:12:51.445Z,20.22
2018-11-12T06:13:26.804Z,20.27
2018-11-12T06:14:02.361Z,20.28
2018-11-12T06:14:37.720Z,20.26
2018-11-12T06:15:13.736Z,20.20
2018-11-12T06:15:49.161Z,20.18
2018-11-12T06:16:24.479Z,20.20
2018-11-12T06:16:59.837Z,20.20
2018-11-12T06:17:35.108Z,20.28
2018-11-12T06:18:10.312Z,20.18
2018-11-12T06:18:45.893Z,20.17
2018-11-12T06:19:21.129Z,20.19
2018-11-12T06:19:56.560Z,20.27
2018-11-12T06:20:33.910Z,20.27
2018-11-12T06:21:09.298Z,20.25
2018-11-12T06:21:45.001Z,20.27
2018-11-12T06:22:20.285Z,20.20
2018-11-12T06:22:55.521Z,20.29
2018-11-12T06:23:31.010Z,20.23
2018-11-12T06:24:06.716Z,20.23
2018-11-12T06:24:41.892Z,20.25
2018-11-12T06:25:19.222Z,20.24
2018-11-12T06:25:54.734Z,20.20
2018-11-12T06:26:30.038Z,20.12
2018-11-12T06:27:05.258Z,20.23
2018-11-12T06:27:40.361Z,20.19
2018-11-12T06:28:15.693Z,20.21
2018-11-12T06:28:50.992Z,20.15
2018-11-12T06:29:26.582Z,20.17
2018-11-12T06:30:02.019Z,20.29
2018-11-12T06:30:38.294Z,20.27
2018-11-12T06:31:13.675Z,20.16
2018-11-12T06:31:49.064Z,20.15
2018-11-12T06:32:24.439Z,20.15
2018-11-12T06:32:59.760Z,20.08
2018-11-12T06:33:35.060Z,20.06
2018-11-12T06:34:10.468Z,20.09
2018-11-12T06:34:45.890Z,20.12
2018-11-12T06:35:21.755Z,20.10
2018-11-12T06:35:57.170Z,20.06
2018-11-12T06:36:32.467Z,20.05
2018-11-12T06:37:08.825Z,20.03
2018-11-12T06:37:45.024Z,20.01
2018-11-12T06:38:20.241Z,20.02
2018-11-12T06:38:55.698Z,19.98
2018-11-12T06:39:30.993Z,20.05
2018-11-12T06:40:07.155Z,20.06
2018-11-12T06:40:42.387Z,20.08
2018-11-12T06:41:17.423Z,20.07
2018-11-12T06:41:52.801Z,20.08
2018-11-12T06:42:28.108Z,20.12
2018-11-12T06:43:03.958Z,20.10
2018-11-12T06:43:39.265Z,20.07
2018-11-12T06:44:14.724Z,20.11
2018-11-12T06:44:50.215Z,20.20
2018-11-12T06:45:27.309Z,20.12
2018-11-12T06:46:02.630Z,20.13
2018-11-12T06:46:37.697Z,20.14
2018-11-12T06:47:12.872Z,20.08
2018-11-12T06:47:49.429Z,20.12
2018-11-12T06:48:24.651Z,20.10
2018-11-12T06:49:00.093Z,20.05
2018-11-12T06:49:35.507Z,20.04
2018-11-12T06:50:13.405Z,19.99
2018-11-12T06:50:48.841Z,20.02
2018-11-12T06:51:24.179Z,19.99
2018-11-12T06:51:59.457Z,20.04
2018-11-12T06:52:34.845Z,20.03
2018-11-12T06:53:10.136Z,20.07
2018-11-12T06:53:45.422Z,20.06
2018-11-12T06:54:20.801Z,20.03
2018-11-12T06:54:55.996Z,19.99
2018-11-12T06:55:31.430Z,20.04
2018-11-12T06:56:07.461Z,20.05
2018-11-12T06:56:42.850Z,20.08
2018-11-12T06:57:18.329Z,20.07
2018-11-12T06:57:54.093Z,20.10
2018-11-12T06:58:29.608Z,20.09
2018-11-12T06:59:04.852Z,20.08
2018-11-12T06:59:40.270Z,20.10
2018-11-12T07:00:19.053Z,20.10
2018-11-12T07:00:54.294Z,20.09
2018-11-12T07:01:29.717Z,20.10
2018-11-12T07:02:04.901Z,20.11
2018-11-12T07:02:40.258Z,20.19
2018-11-12T07:03:15.521Z,20.18
2018-11-12T07:03:50.916Z,20.16
2018-11-12T07:04:26.336Z,20.15
2018-11-12T07:05:01.652Z,20.10
2018-11-12T07:05:37.199Z,20.14
2018-11-12T07:06:12.477Z,20.13
2018-11-12T07:06:47.834Z,20.12
2018-11-12T07:07:23.266Z,20.08
2018-11-12T07:07:58.643Z,20.08
2018-11-12T07:08:34.073Z,20.09
2018-11-12T07:09:12.616Z,20.08
2018-11-12T07:09:48.085Z,20.04
2018-11-12T07:10:24.718Z,20.10
2018-11-12T07:11:00.273Z,20.09
2018-11-12T07:11:35.620Z,20.09
2018-11-12T07:12:11.032Z,20.08
2018-11-12T07:12:47.582Z,20.08
2018-11-12T07:13:22.848Z,20.09
2018-11-12T07:13:58.099Z,20.11
2018-11-12T07:14:33.503Z,20.16
2018-11-12T07:15:11.052Z,20.10
2018-11-12T07:15:46.296Z,20.13
2018-11-12T07:16:21.614Z,20.14
2018-11-12T07:16:56.835Z,20.10
2018-11-12T07:17:32.170Z,20.06
2018-11-12T07:18:07.607Z,20.13
2018-11-12T07:18:43.148Z,20.08
2018-11-12T07:19:18.428Z,20.04
2018-11-12T07:19:54.879Z,20.02
2018-11-12T07:20:30.860Z,20.01
2018-11-12T07:21:06.208Z,19.97
2018-11-12T07:21:41.645Z,20.05
2018-11-12T07:22:16.842Z,20.06
2018-11-12T07:22:52.633Z,20.00
2018-11-12T07:23:28.127Z,20.02
2018-11-12T07:24:03.396Z,20.04
2018-11-12T07:24:38.798Z,20.02
2018-11-12T07:25:15.089Z,20.01
2018-11-12T07:25:50.394Z,20.02
2018-11-12T07:26:25.713Z,20.05
2018-11-12T07:27:01.076Z,20.04
2018-11-12T07:27:36.469Z,20.05
2018-11-12T07:28:12.052Z,20.00
2018-11-12T07:28:47.209Z,20.04
2018-11-12T07:29:22.654Z,20.03
2018-11-12T07:29:57.903Z,19.99
2018-11-12T07:30:33.122Z,20.03
2018-11-12T07:31:08.519Z,20.05
2018-11-12T07:31:43.947Z,20.05
2018-11-12T07:32:19.695Z,20.04
2018-11-12T07:32:56.164Z,20.01
2018-11-12T07:33:31.549Z,20.01
2018-11-12T07:34:07.171Z,20.04
2018-11-12T07:34:42.387Z,20.01
2018-11-12T07:35:18.593Z,20.01
2018-11-12T07:35:53.787Z,19.98
2018-11-12T07:36:29.180Z,20.05
2018-11-12T07:37:04.593Z,20.00
2018-11-12T07:37:40.121Z,20.00
2018-11-12T07:38:15.305Z,19.95
2018-11-12T07:38:50.720Z,20.00